Brickton, Illinois
Current Conditions -  °F | °C
As of 1:15 PM on Monday 20 Oct 2014 (Local Time) from KVYS Reporting Station
Scattered Clouds Scattered Clouds  
Wind Chill: 65°   Ceiling: Unl
Heat Index: 65°   Visibility: 10mi
Dew Point: 46°   Wind: 16mph
Humidity: 49%   Direction: 320°NW
Pressure: 29.89"   Gusts: 22mph
Location:  41.4349°N, 88.8687°W
Report Text: KVYS 201815Z AUTO 32014G19KT 10SM SCT049 19/08 A2989 RMK AO2 T01850076
Loading
Personal Weather Stations






























Interactive Weather Map
Tropical Storm Tracking
New forecast layout! Learn more

10-Day Weather Forecast

Advertisements
Track Severe Weather on mobile